createdAt,value
2023-02-25T00:02:23.200Z,2.65
2023-02-25T00:04:50.356Z,2.60
2023-02-25T00:07:17.399Z,6.82
2023-02-25T00:09:44.450Z,4.63
2023-02-25T00:12:11.585Z,4.43
2023-02-25T00:14:38.887Z,4.72
2023-02-25T00:17:06.170Z,1.92
2023-02-25T00:19:33.513Z,1.60
2023-02-25T00:22:00.734Z,2.00
2023-02-25T00:24:28.183Z,2.97
2023-02-25T00:26:55.292Z,2.08
2023-02-25T00:29:22.963Z,3.00
2023-02-25T00:31:50.262Z,1.90
2023-02-25T00:34:17.946Z,2.17
2023-02-25T00:36:45.774Z,1.25
2023-02-25T00:39:13.043Z,2.17
2023-02-25T00:41:40.243Z,1.90
2023-02-25T00:44:07.355Z,0.65
2023-02-25T00:46:34.863Z,1.40
2023-02-25T00:49:02.242Z,2.72
2023-02-25T00:51:33.314Z,2.05
2023-02-25T00:54:00.460Z,2.80
2023-02-25T00:56:27.965Z,1.20
2023-02-25T00:58:55.139Z,1.48
2023-02-25T01:01:26.862Z,1.60
2023-02-25T01:03:56.493Z,1.63
2023-02-25T01:06:24.500Z,1.58
2023-02-25T01:08:52.010Z,1.08
2023-02-25T01:11:29.109Z,1.50
2023-02-25T01:13:57.173Z,2.17
2023-02-25T01:16:26.135Z,1.30
2023-02-25T01:18:54.150Z,1.52
2023-02-25T01:21:26.090Z,1.67
2023-02-25T01:23:58.740Z,1.25
2023-02-25T01:26:26.813Z,2.33
2023-02-25T01:28:53.885Z,1.60
2023-02-25T01:31:29.417Z,1.75
2023-02-25T01:34:00.527Z,1.92
2023-02-25T01:36:27.955Z,1.55
2023-02-25T01:38:56.292Z,1.10
2023-02-25T01:41:24.381Z,1.83
2023-02-25T01:44:12.587Z,1.73
2023-02-25T01:46:40.535Z,1.27
2023-02-25T01:49:11.121Z,1.95
2023-02-25T01:51:38.492Z,1.67
2023-02-25T01:54:08.289Z,2.67
2023-02-25T01:56:37.870Z,1.13
2023-02-25T01:59:05.135Z,1.60
2023-02-25T02:01:33.825Z,1.00
2023-02-25T02:04:03.866Z,1.40
2023-02-25T02:06:36.806Z,1.65
2023-02-25T02:09:06.799Z,1.27
2023-02-25T02:11:34.388Z,1.48
2023-02-25T02:14:04.031Z,1.00
2023-02-25T02:16:37.102Z,1.27
2023-02-25T02:19:17.063Z,1.33
2023-02-25T02:21:50.461Z,1.52
2023-02-25T02:24:26.952Z,1.02
2023-02-25T02:27:00.749Z,1.33
2023-02-25T02:29:38.412Z,1.60
2023-02-25T02:32:24.188Z,2.42
2023-02-25T02:35:09.466Z,1.20
2023-02-25T02:37:59.707Z,1.33
2023-02-25T02:40:53.365Z,1.77
2023-02-25T02:43:38.155Z,0.95
2023-02-25T02:46:11.529Z,1.23
2023-02-25T02:48:51.337Z,1.40
2023-02-25T02:51:23.731Z,1.85
2023-02-25T02:53:53.122Z,1.85
2023-02-25T02:56:22.349Z,1.77
2023-02-25T02:58:53.040Z,1.98
2023-02-25T03:01:27.226Z,1.90
2023-02-25T03:03:59.814Z,1.48
2023-02-25T03:06:30.471Z,1.77
2023-02-25T03:08:59.659Z,1.10
2023-02-25T03:11:26.912Z,2.35
2023-02-25T03:13:54.048Z,1.23
2023-02-25T03:16:27.273Z,1.95
2023-02-25T03:19:14.629Z,1.98
2023-02-25T03:21:43.355Z,1.55
2023-02-25T03:24:14.794Z,1.83
2023-02-25T03:26:42.810Z,2.47
2023-02-25T03:29:17.218Z,2.08
2023-02-25T03:31:49.678Z,1.55
2023-02-25T03:34:19.527Z,1.65
2023-02-25T03:36:54.250Z,1.40
2023-02-25T03:39:23.361Z,1.17
2023-02-25T03:41:52.916Z,2.20
2023-02-25T03:44:27.609Z,1.50
2023-02-25T03:46:56.005Z,2.42
2023-02-25T03:49:31.550Z,2.53
2023-02-25T03:51:59.700Z,1.65
2023-02-25T03:54:27.407Z,0.95
2023-02-25T03:56:54.560Z,1.52
2023-02-25T03:59:28.025Z,1.55
2023-02-25T04:01:55.498Z,2.00
2023-02-25T04:04:23.003Z,1.17
2023-02-25T04:06:50.288Z,0.98
2023-02-25T04:09:17.469Z,1.48
2023-02-25T04:11:44.724Z,2.35
2023-02-25T04:14:11.787Z,1.38
2023-02-25T04:16:38.881Z,1.55
2023-02-25T04:19:06.000Z,2.08
2023-02-25T04:21:39.267Z,1.58
2023-02-25T04:24:06.962Z,2.22
2023-02-25T04:26:37.197Z,2.28
2023-02-25T04:29:04.502Z,1.40
2023-02-25T04:31:31.782Z,1.20
2023-02-25T04:33:59.018Z,1.20
2023-02-25T04:36:31.052Z,1.92
2023-02-25T04:41:28.824Z,1.38
2023-02-25T04:43:56.003Z,1.00
2023-02-25T04:46:23.469Z,1.45
2023-02-25T04:48:50.881Z,1.15
2023-02-25T04:51:18.504Z,2.25
2023-02-25T04:53:46.740Z,1.23
2023-02-25T04:56:13.991Z,2.42
2023-02-25T04:58:41.103Z,1.10
2023-02-25T05:01:09.009Z,1.42
2023-02-25T05:03:36.683Z,1.25
2023-02-25T05:06:04.228Z,1.15
2023-02-25T05:08:32.004Z,0.95
2023-02-25T05:10:59.536Z,1.83
2023-02-25T05:13:30.775Z,1.40
2023-02-25T05:16:11.969Z,1.17
2023-02-25T05:18:42.332Z,1.50
2023-02-25T05:21:22.908Z,1.30
2023-02-25T05:23:50.742Z,0.95
2023-02-25T05:26:18.511Z,1.02
2023-02-25T05:28:45.598Z,0.80
2023-02-25T05:31:13.462Z,1.25
2023-02-25T05:33:40.847Z,0.82
2023-02-25T05:36:08.828Z,1.73
2023-02-25T05:38:36.795Z,1.00
2023-02-25T05:41:05.924Z,1.00
2023-02-25T05:43:33.048Z,0.93
2023-02-25T05:46:01.574Z,0.60
2023-02-25T05:48:28.696Z,0.55
2023-02-25T05:51:00.906Z,0.40
2023-02-25T05:53:28.005Z,0.70
2023-02-25T05:55:55.801Z,0.32
2023-02-25T05:58:23.590Z,0.55
2023-02-25T06:00:50.706Z,0.40
2023-02-25T06:03:18.549Z,0.63
2023-02-25T06:05:47.853Z,0.65
2023-02-25T06:08:15.181Z,0.60
2023-02-25T06:10:42.308Z,0.70
2023-02-25T06:13:10.059Z,0.85
2023-02-25T06:15:38.070Z,0.50
2023-02-25T06:18:05.304Z,0.47
2023-02-25T06:20:32.856Z,0.88
2023-02-25T06:22:59.928Z,0.60
2023-02-25T06:25:29.932Z,0.70
2023-02-25T06:27:57.916Z,0.60
2023-02-25T06:30:25.412Z,1.23
2023-02-25T06:32:52.776Z,0.43
2023-02-25T06:35:23.325Z,0.38
2023-02-25T06:37:57.833Z,0.60
2023-02-25T06:40:24.958Z,0.43
2023-02-25T06:42:52.144Z,0.77
2023-02-25T06:45:19.250Z,0.60
2023-02-25T06:47:46.370Z,0.77
2023-02-25T06:50:14.330Z,0.60
2023-02-25T06:52:41.448Z,1.02
2023-02-25T06:55:08.769Z,0.55
2023-02-25T06:57:35.922Z,0.70
2023-02-25T07:00:05.458Z,0.70
2023-02-25T07:02:32.963Z,0.93
2023-02-25T07:05:01.365Z,0.50
2023-02-25T07:07:28.529Z,0.88
2023-02-25T07:09:55.607Z,0.80
2023-02-25T07:12:22.757Z,0.95
2023-02-25T07:14:50.446Z,1.77
2023-02-25T07:17:17.540Z,2.35
2023-02-25T07:19:44.645Z,1.50
2023-02-25T07:22:15.858Z,1.77
2023-02-25T07:24:43.076Z,1.00
2023-02-25T07:27:10.386Z,1.27
2023-02-25T07:29:37.606Z,1.50
2023-02-25T07:32:05.098Z,1.17
2023-02-25T07:34:32.399Z,1.48
2023-02-25T07:36:59.494Z,0.82
2023-02-25T07:39:26.558Z,0.50
2023-02-25T07:41:53.655Z,0.90
2023-02-25T07:44:21.061Z,1.00
2023-02-25T07:46:48.129Z,1.50
2023-02-25T07:49:15.342Z,0.75
2023-02-25T07:51:42.449Z,0.90
2023-02-25T07:54:09.620Z,0.77
2023-02-25T07:56:36.728Z,0.60
2023-02-25T07:59:04.038Z,1.15
2023-02-25T08:01:33.045Z,0.68
2023-02-25T08:04:01.015Z,0.52
2023-02-25T08:06:28.640Z,0.65
2023-02-25T08:08:55.746Z,0.60
2023-02-25T08:11:24.789Z,0.80
2023-02-25T08:13:52.347Z,0.52
2023-02-25T08:16:20.638Z,0.40
2023-02-25T08:18:48.454Z,5.57
2023-02-25T08:21:18.099Z,1.50
2023-02-25T08:23:45.270Z,0.40
2023-02-25T08:26:12.444Z,0.90
2023-02-25T08:28:39.705Z,0.65
2023-02-25T08:31:08.052Z,0.30
2023-02-25T08:33:35.467Z,0.35
2023-02-25T08:36:16.593Z,0.60
2023-02-25T08:38:44.575Z,0.38
2023-02-25T08:41:11.782Z,0.55
2023-02-25T08:43:39.622Z,0.45
2023-02-25T08:46:06.846Z,0.38
2023-02-25T08:48:34.662Z,0.50
2023-02-25T08:51:08.347Z,0.52
2023-02-25T08:53:38.184Z,0.65
2023-02-25T08:56:06.281Z,0.50
2023-02-25T08:58:33.741Z,0.50
2023-02-25T09:01:01.440Z,0.50
2023-02-25T09:03:28.826Z,0.95
2023-02-25T09:05:56.871Z,0.50
2023-02-25T09:08:23.977Z,0.70
2023-02-25T09:10:51.284Z,0.52
2023-02-25T09:13:18.585Z,0.60
2023-02-25T09:15:45.759Z,0.90
2023-02-25T09:18:12.967Z,0.55
2023-02-25T09:20:40.161Z,0.50
2023-02-25T09:23:07.292Z,0.75
2023-02-25T09:25:34.417Z,0.60
2023-02-25T09:28:01.530Z,0.57
2023-02-25T09:30:28.676Z,0.80
2023-02-25T09:32:55.974Z,0.50
2023-02-25T09:35:23.282Z,1.58
2023-02-25T09:37:50.342Z,0.60
2023-02-25T09:40:22.749Z,0.47
2023-02-25T09:42:53.041Z,0.90
2023-02-25T09:45:23.994Z,1.08
2023-02-25T09:47:51.078Z,0.82
2023-02-25T09:50:21.496Z,0.70
2023-02-25T09:52:51.387Z,0.77
2023-02-25T09:55:31.136Z,1.10
2023-02-25T09:58:02.923Z,0.60
2023-02-25T10:00:31.609Z,0.77
2023-02-25T10:03:06.178Z,0.60
2023-02-25T10:05:52.311Z,0.60
2023-02-25T10:08:24.398Z,1.00
2023-02-25T10:11:21.142Z,1.08
2023-02-25T10:13:57.148Z,0.73
2023-02-25T10:16:47.811Z,0.80
2023-02-25T10:19:14.920Z,0.80
2023-02-25T10:21:57.304Z,1.45
2023-02-25T10:24:28.256Z,0.68
2023-02-25T10:26:59.427Z,1.03
2023-02-25T10:29:33.176Z,0.70
2023-02-25T10:32:01.295Z,0.93
2023-02-25T10:34:29.577Z,1.20
2023-02-25T10:36:58.491Z,0.93
2023-02-25T10:39:26.904Z,0.82
2023-02-25T10:41:54.571Z,0.82
2023-02-25T10:44:21.776Z,0.77
2023-02-25T10:46:54.963Z,1.05
2023-02-25T10:49:26.335Z,0.70
2023-02-25T10:52:22.762Z,0.70
2023-02-25T10:54:50.930Z,0.80
2023-02-25T10:57:26.814Z,1.00
2023-02-25T11:00:05.997Z,0.63
2023-02-25T11:02:37.640Z,0.63
2023-02-25T11:05:05.042Z,0.70
2023-02-25T11:07:34.732Z,0.75
2023-02-25T11:10:19.480Z,0.47
2023-02-25T11:12:48.618Z,1.13
2023-02-25T11:15:43.177Z,0.75
2023-02-25T11:18:17.320Z,0.70
2023-02-25T11:20:49.672Z,0.70
2023-02-25T11:23:37.049Z,0.50
2023-02-25T11:26:06.487Z,0.60
2023-02-25T11:28:35.356Z,0.65
2023-02-25T11:31:08.113Z,0.57
2023-02-25T11:33:36.974Z,0.95
2023-02-25T11:36:04.327Z,0.50
2023-02-25T11:38:35.852Z,0.30
2023-02-25T11:41:03.260Z,0.40
2023-02-25T11:43:39.680Z,0.55
2023-02-25T11:46:13.517Z,0.40
2023-02-25T11:48:49.677Z,0.35
2023-02-25T11:51:19.698Z,0.55
2023-02-25T11:53:59.943Z,0.43
2023-02-25T11:56:31.271Z,0.50
2023-02-25T11:59:10.369Z,0.47
2023-02-25T12:01:46.514Z,0.52
2023-02-25T12:04:39.843Z,0.70
2023-02-25T12:07:12.979Z,0.85
2023-02-25T12:09:58.876Z,0.45
2023-02-25T12:12:33.644Z,0.30
2023-02-25T12:15:19.471Z,0.65
2023-02-25T12:17:59.335Z,0.50
2023-02-25T12:20:42.284Z,0.82
2023-02-25T12:23:09.364Z,0.32
2023-02-25T12:25:42.490Z,0.52
2023-02-25T12:28:28.533Z,0.28
2023-02-25T12:31:21.643Z,0.32
2023-02-25T12:33:48.908Z,0.50
2023-02-25T12:36:34.635Z,0.38
2023-02-25T12:39:01.786Z,0.30
2023-02-25T12:41:39.956Z,0.32
2023-02-25T12:44:25.921Z,0.30
2023-02-25T12:47:04.851Z,0.70
2023-02-25T12:49:42.379Z,0.50
2023-02-25T12:52:17.384Z,0.43
2023-02-25T12:54:56.922Z,0.70
2023-02-25T12:57:24.159Z,0.75
2023-02-25T13:00:10.185Z,0.60
2023-02-25T13:02:49.663Z,0.40
2023-02-25T13:05:16.790Z,0.63
2023-02-25T13:07:52.457Z,0.90
2023-02-25T13:10:22.605Z,0.55
2023-02-25T13:12:57.710Z,0.77
2023-02-25T13:15:30.844Z,0.55
2023-02-25T13:17:59.585Z,0.60
2023-02-25T13:20:45.919Z,0.40
2023-02-25T13:23:19.065Z,0.38
2023-02-25T13:25:58.724Z,0.60
2023-02-25T13:28:25.827Z,0.70
2023-02-25T13:30:59.995Z,0.63
2023-02-25T13:33:39.117Z,0.40
2023-02-25T13:36:25.243Z,0.60
2023-02-25T13:38:55.289Z,0.40
2023-02-25T13:41:37.455Z,0.30
2023-02-25T13:46:37.782Z,0.40
2023-02-25T13:49:23.521Z,0.60
2023-02-25T13:52:00.909Z,0.40
2023-02-25T13:54:46.772Z,0.50
2023-02-25T13:57:32.740Z,0.60
2023-02-25T14:00:09.456Z,0.60
2023-02-25T14:02:55.924Z,0.40
2023-02-25T14:05:32.033Z,0.57
2023-02-25T14:08:13.544Z,0.50
2023-02-25T14:10:43.515Z,0.75
2023-02-25T14:13:20.970Z,0.30
2023-02-25T14:15:54.078Z,0.40
2023-02-25T14:18:27.220Z,0.60
2023-02-25T14:21:17.860Z,0.60
2023-02-25T14:23:51.482Z,0.60
2023-02-25T14:26:34.342Z,0.60
2023-02-25T14:29:19.957Z,0.50
2023-02-25T14:31:53.952Z,0.65
2023-02-25T14:34:24.227Z,0.88
2023-02-25T14:36:54.902Z,0.70
2023-02-25T14:39:41.145Z,0.50
2023-02-25T14:42:18.303Z,0.50
2023-02-25T14:45:00.443Z,0.60
2023-02-25T14:47:30.502Z,0.40
2023-02-25T14:50:03.819Z,0.90
2023-02-25T14:52:30.890Z,0.40
2023-02-25T14:54:57.942Z,1.25
2023-02-25T14:57:31.061Z,0.77
2023-02-25T15:00:16.484Z,0.47
2023-02-25T15:02:50.887Z,0.43
2023-02-25T15:05:24.059Z,0.68
2023-02-25T15:07:51.109Z,0.75
2023-02-25T15:10:24.534Z,0.45
2023-02-25T15:13:03.693Z,1.20
2023-02-25T15:15:49.561Z,0.60
2023-02-25T15:18:29.130Z,0.55
2023-02-25T15:20:56.845Z,0.70
2023-02-25T15:23:41.451Z,0.75
2023-02-25T15:26:14.561Z,0.60
2023-02-25T15:28:42.600Z,0.50
2023-02-25T15:31:11.430Z,0.73
2023-02-25T15:33:40.108Z,0.60
2023-02-25T15:36:13.444Z,0.60
2023-02-25T15:38:46.861Z,0.70
2023-02-25T15:41:32.548Z,0.77
2023-02-25T15:44:08.711Z,0.68
2023-02-25T15:46:35.812Z,0.70
2023-02-25T15:49:05.816Z,0.70
2023-02-25T15:51:42.330Z,0.60
2023-02-25T15:54:32.467Z,0.50
2023-02-25T15:57:01.325Z,0.68
2023-02-25T15:59:43.957Z,0.68
2023-02-25T16:02:29.203Z,0.68
2023-02-25T16:05:16.253Z,0.82
2023-02-25T16:07:49.264Z,0.93
2023-02-25T16:10:19.120Z,0.65
2023-02-25T16:12:51.247Z,0.52
2023-02-25T16:17:45.486Z,0.40
2023-02-25T16:20:19.064Z,0.60
2023-02-25T16:22:47.406Z,0.40
2023-02-25T16:25:16.009Z,0.80
2023-02-25T16:27:55.279Z,1.13
2023-02-25T16:30:25.204Z,1.10
2023-02-25T16:33:07.688Z,1.20
2023-02-25T16:35:41.835Z,0.68
2023-02-25T16:38:20.848Z,1.05
2023-02-25T16:40:48.802Z,0.93
2023-02-25T16:43:22.032Z,1.75
2023-02-25T16:45:59.950Z,2.13
2023-02-25T16:48:34.457Z,0.80
2023-02-25T16:51:28.197Z,0.90
2023-02-25T16:53:58.008Z,1.38
2023-02-25T16:56:27.802Z,0.90
2023-02-25T16:59:05.660Z,0.65
2023-02-25T17:01:33.806Z,0.70
2023-02-25T17:04:02.498Z,0.77
2023-02-25T17:06:29.800Z,0.60
2023-02-25T17:08:56.905Z,0.60
2023-02-25T17:11:24.893Z,0.65
2023-02-25T17:13:55.601Z,0.77
2023-02-25T17:16:25.946Z,0.98
2023-02-25T17:18:58.244Z,0.55
2023-02-25T17:23:52.879Z,0.80
2023-02-25T17:26:20.906Z,0.40
2023-02-25T17:28:49.624Z,0.60
2023-02-25T17:31:26.597Z,1.00
2023-02-25T17:33:58.350Z,2.00
2023-02-25T17:36:27.248Z,0.95
2023-02-25T17:38:58.909Z,0.98
2023-02-25T17:41:26.292Z,0.82
2023-02-25T17:43:53.572Z,0.90
2023-02-25T17:46:41.430Z,0.80
2023-02-25T17:49:21.886Z,0.98
2023-02-25T17:51:53.863Z,0.80
2023-02-25T17:56:55.673Z,5.57
2023-02-25T17:59:30.408Z,3.10
2023-02-25T18:01:59.086Z,1.80
2023-02-25T18:04:33.020Z,1.92
2023-02-25T18:07:19.438Z,1.38
2023-02-25T18:09:46.632Z,3.47
2023-02-25T18:12:21.285Z,1.95
2023-02-25T18:14:51.955Z,1.80
2023-02-25T18:17:28.436Z,6.45
2023-02-25T18:19:56.974Z,3.55
2023-02-25T18:22:30.043Z,1.73
2023-02-25T18:24:58.240Z,3.08
2023-02-25T18:27:30.149Z,3.25
2023-02-25T18:29:59.677Z,3.22
2023-02-25T18:32:27.473Z,1.45
2023-02-25T18:34:54.659Z,2.13
2023-02-25T18:37:22.013Z,1.38
2023-02-25T18:39:49.232Z,3.25
2023-02-25T18:42:17.699Z,2.83
2023-02-25T18:44:45.538Z,2.13
2023-02-25T18:47:12.716Z,1.63
2023-02-25T18:49:39.871Z,1.13
2023-02-25T18:52:11.172Z,1.65
2023-02-25T18:54:38.256Z,1.70
2023-02-25T18:57:10.531Z,1.48
2023-02-25T18:59:37.605Z,2.15
2023-02-25T19:02:04.694Z,2.42
2023-02-25T19:04:31.806Z,2.50
2023-02-25T19:06:58.944Z,2.03
2023-02-25T19:09:26.002Z,2.45
2023-02-25T19:11:53.117Z,2.55
2023-02-25T19:14:21.022Z,1.73
2023-02-25T19:16:48.155Z,1.75
2023-02-25T19:19:15.346Z,1.63
2023-02-25T19:21:42.441Z,1.90
2023-02-25T19:24:12.422Z,1.30
2023-02-25T19:26:39.583Z,1.08
2023-02-25T19:29:06.728Z,1.40
2023-02-25T19:31:33.920Z,0.90
2023-02-25T19:34:01.028Z,1.05
2023-02-25T19:36:28.125Z,1.33
2023-02-25T19:38:55.232Z,1.45
2023-02-25T19:41:22.311Z,1.10
2023-02-25T19:43:49.440Z,1.40
2023-02-25T19:46:17.793Z,0.80
2023-02-25T19:48:45.110Z,1.45
2023-02-25T19:51:12.396Z,1.60
2023-02-25T19:53:39.486Z,1.40
2023-02-25T19:56:07.910Z,1.20
2023-02-25T19:58:35.087Z,1.38
2023-02-25T20:01:06.023Z,1.13
2023-02-25T20:03:33.354Z,1.17
2023-02-25T20:06:07.796Z,1.10
2023-02-25T20:08:36.141Z,0.98
2023-02-25T20:11:03.738Z,1.05
2023-02-25T20:13:31.174Z,1.38
2023-02-25T20:16:01.777Z,1.42
2023-02-25T20:18:28.886Z,0.75
2023-02-25T20:20:56.018Z,2.35
2023-02-25T20:23:23.231Z,2.03
2023-02-25T20:25:50.295Z,2.00
2023-02-25T20:28:17.418Z,1.50
2023-02-25T20:30:44.585Z,1.10
2023-02-25T20:33:12.309Z,1.92
2023-02-25T20:35:39.485Z,2.13
2023-02-25T20:38:06.516Z,2.28
2023-02-25T20:40:33.603Z,3.33
2023-02-25T20:43:00.788Z,2.75
2023-02-25T20:45:29.619Z,2.45
2023-02-25T20:47:56.837Z,2.60
2023-02-25T20:50:27.615Z,2.50
2023-02-25T20:52:55.119Z,2.90
2023-02-25T20:55:22.195Z,2.50
2023-02-25T20:57:49.473Z,2.60
2023-02-25T21:00:16.866Z,1.90
2023-02-25T21:02:43.956Z,2.80
2023-02-25T21:05:11.091Z,2.20
2023-02-25T21:07:38.238Z,2.38
2023-02-25T21:10:05.490Z,2.15
2023-02-25T21:12:32.644Z,2.67
2023-02-25T21:14:59.795Z,2.95
2023-02-25T21:17:27.095Z,5.07
2023-02-25T21:19:54.182Z,3.45
2023-02-25T21:22:21.918Z,4.63
2023-02-25T21:24:48.979Z,3.42
2023-02-25T21:27:16.088Z,2.95
2023-02-25T21:29:43.153Z,3.25
2023-02-25T21:32:10.248Z,6.07
2023-02-25T21:34:37.384Z,7.03
2023-02-25T21:37:04.532Z,6.72
2023-02-25T21:39:31.595Z,4.97
2023-02-25T21:41:58.657Z,5.88
2023-02-25T21:44:25.786Z,6.28
2023-02-25T21:46:52.846Z,4.35
2023-02-25T21:49:20.313Z,3.90
2023-02-25T21:51:47.630Z,4.40
2023-02-25T21:54:14.855Z,4.00
2023-02-25T21:56:42.069Z,3.40
2023-02-25T21:59:09.435Z,3.63
2023-02-25T22:01:38.475Z,3.83
2023-02-25T22:04:05.952Z,4.07
2023-02-25T22:06:33.510Z,4.28
2023-02-25T22:09:00.975Z,4.78
2023-02-25T22:11:29.424Z,4.95
2023-02-25T22:13:56.561Z,6.28
2023-02-25T22:16:24.501Z,4.88
2023-02-25T22:18:52.399Z,3.65
2023-02-25T22:21:21.210Z,2.80
2023-02-25T22:23:49.186Z,2.80
2023-02-25T22:26:17.770Z,2.13
2023-02-25T22:28:45.126Z,2.17
2023-02-25T22:31:13.485Z,2.20
2023-02-25T22:33:41.040Z,3.08
2023-02-25T22:36:08.677Z,3.28
2023-02-25T22:38:37.480Z,2.80
2023-02-25T22:41:05.962Z,2.38
2023-02-25T22:43:33.876Z,1.60
2023-02-25T22:46:10.241Z,2.20
2023-02-25T22:48:38.496Z,2.05
2023-02-25T22:51:06.683Z,2.58
2023-02-25T22:53:33.786Z,1.92
2023-02-25T22:56:04.716Z,2.65
2023-02-25T22:58:31.963Z,1.77
2023-02-25T23:00:59.789Z,2.33
2023-02-25T23:03:27.188Z,2.75
2023-02-25T23:05:55.033Z,2.13
2023-02-25T23:08:22.950Z,2.53
2023-02-25T23:10:50.442Z,1.88
2023-02-25T23:13:17.584Z,1.63
2023-02-25T23:15:48.005Z,1.80
2023-02-25T23:18:16.130Z,1.58
2023-02-25T23:20:43.490Z,1.20
2023-02-25T23:23:13.480Z,0.90
2023-02-25T23:25:42.476Z,1.20
2023-02-25T23:28:10.194Z,1.25
2023-02-25T23:30:38.677Z,1.08
2023-02-25T23:33:05.909Z,1.35
2023-02-25T23:35:33.465Z,1.73
2023-02-25T23:38:01.053Z,0.75
2023-02-25T23:40:29.280Z,0.88
2023-02-25T23:42:56.541Z,1.15
2023-02-25T23:45:23.801Z,1.00
2023-02-25T23:47:51.026Z,1.15
2023-02-25T23:50:19.086Z,1.02
2023-02-25T23:52:46.915Z,1.02
2023-02-25T23:55:16.152Z,1.40
2023-02-25T23:57:43.259Z,0.60
